Clearwater, FL

9:18 PM EDT on July 30, 2015 (GMT -0400)
S Betty Lane | | Change Station
CLOSE
Current Station
Personal Weather Station
Location: Clearwater, FL
Elevation: 18 ft
Nearby Weather Stations

Elev 18 ft 27.96 °N, 82.78 °W | Updated 53 seconds ago

Overcast
Overcast
76.8 °F
Feels Like 77 °F
N
0.0
Wind Variable Wind from West
Gusts 0.0 mph

Today
High -- | Low -- °F
--% Chance of Precip.
Yesterday
High -- | Low -- °F
Precip. -- in
6:52 AM 8:22 PM
Full, 100% visible
Pressure 29.98 in
Visibility 10.0 miles
Clouds Few 7500 ft
Scattered Clouds 9500 ft
Mostly Cloudy 12000 ft
Heat Index 77 °F
Dew Point 76 °F
Humidity 99%
Rainfall 0.51 in
Snow Depth Not available.
UV 0 out of 12
Pollen .30 out of 12
Air Quality Not available.
Flu Activity Not available.
METAR KPIE 310053Z 20004KT 10SM FEW075 SCT095 BKN120 24/22 A2998 RMK AO2 RAE36 SLP150 P0002 T02390222

More Conditions Fewer Conditions

Pressure 29.98 in
Visibility 10.0 miles
Clouds Few 7500 ft
Scattered Clouds 9500 ft
Mostly Cloudy 12000 ft
Heat Index 77 °F
Dew Point 76 °F
Humidity 99%
Rainfall 0.51 in
Snow Depth Not available.
UV 0 out of 12
Pollen .30 out of 12
Air Quality Not available.
Flu Activity Not available.
METAR KPIE 310053Z 20004KT 10SM FEW075 SCT095 BKN120 24/22 A2998 RMK AO2 RAE36 SLP150 P0002 T02390222

More Conditions Fewer Conditions

10-Day Weather Forecast

×

Almanac

Astronomy

Jul. 30, 2015 Rise Set
Actual Time
Civil Twilight
Nautical Twilight
Astronomical Twilight
Moon
Length of Visible Light
Length of Day
Tomorrow will be .
, % of the Moon is Illuminated

Today's Extremes

State Highs State Lows

Community

WunderPhotos

Upload Photos

1,842,556 photos uploaded!

WunderBlogs® & News

Nearby

Air Quality

  Air Quality AQ Index Pollutant
Not available.

Snow Depth

Station Depth Elevation

Earthquake Activity

City Distance Mag. Time & Date
Minimum magnitude displayed is 2.5.

Coastal Water Temperatures

Place Temperature

Stations

Nearby Weather Stations

Station Location Temp. Windchill Dew Point Humidity Wind Precip. Elev Updated Type